Time;durP1;ratioP1;P1;durP2;ratioP2;P2;SDS_P1;SDS_P2;PMS_P1;PMS_P2;Temp;Humidity;BMP_temperature;BMP_pressure;BME280_temperature;BME280_humidity;BME280_pressure;Samples;Min_cycle;Max_cycle;Signal;HPM_P1;HPM_P2
2021/01/10 00:02:26;;;;;;;15.88;14.65;;;;;;;5.14;61.83;102527.41;5086225;28;20040;-86
2021/01/10 00:04:52;;;;;;;11.52;10.55;;;;;;;5.11;61.89;102519.56;5085863;28;20032;-86
2021/01/10 00:07:24;;;;;;;14.18;13.07;;;;;;;5.11;61.93;102533.06;5087310;28;20497;-86
2021/01/10 00:09:50;;;;;;;14.57;13.52;;;;;;;5.12;61.80;102542.00;5086798;28;20043;-86
2021/01/10 00:12:23;;;;;;;11.85;10.73;;;;;;;5.11;62.00;102529.47;5086828;28;20032;-86
2021/01/10 00:14:50;;;;;;;14.32;13.25;;;;;;;5.09;62.16;102523.34;5084360;28;20032;-85
2021/01/10 00:17:15;;;;;;;13.77;12.68;;;;;;;5.16;62.21;102524.59;5086388;28;20028;-85
2021/01/10 00:19:48;;;;;;;14.48;13.63;;;;;;;5.19;62.29;102522.53;5069627;28;20028;-85
2021/01/10 00:22:16;;;;;;;12.88;11.10;;;;;;;5.27;62.24;102519.22;5080059;28;20475;-87
2021/01/10 00:24:41;;;;;;;12.68;11.75;;;;;;;5.28;62.64;102510.13;5101423;28;20087;-85
2021/01/10 00:27:11;;;;;;;12.68;11.57;;;;;;;5.40;62.70;102518.25;5083569;28;20028;-85
2021/01/10 00:29:38;;;;;;;11.30;10.10;;;;;;;5.34;62.59;102503.41;5085855;28;20040;-86
2021/01/10 00:32:05;;;;;;;13.07;9.30;;;;;;;5.45;62.32;102516.06;5086721;28;20035;-85
2021/01/10 00:34:31;;;;;;;19.13;17.70;;;;;;;5.52;62.64;102515.44;5087256;28;20064;-85
2021/01/10 00:36:57;;;;;;;17.80;15.95;;;;;;;5.63;63.27;102519.13;5086866;28;20485;-85
2021/01/10 00:39:22;;;;;;;21.33;19.73;;;;;;;5.65;62.42;102511.78;5070306;28;20036;-84
2021/01/10 00:41:48;;;;;;;21.58;20.00;;;;;;;5.66;62.57;102514.34;5088051;28;20039;-85
2021/01/10 00:44:13;;;;;;;18.52;16.88;;;;;;;5.76;62.83;102505.50;5087222;28;20093;-86
2021/01/10 00:46:39;;;;;;;23.00;21.38;;;;;;;5.79;62.73;102497.16;5088107;28;20043;-84
2021/01/10 00:49:04;;;;;;;17.40;15.35;;;;;;;6.01;62.80;102518.78;5069506;28;20044;-84
2021/01/10 00:51:30;;;;;;;33.28;30.85;;;;;;;6.06;62.81;102507.59;5085458;28;20081;-85
2021/01/10 00:53:55;;;;;;;26.63;24.77;;;;;;;6.09;62.54;102500.09;5085574;28;20031;-85
2021/01/10 00:56:21;;;;;;;18.05;16.17;;;;;;;6.31;62.24;102513.69;5086486;28;20020;-85
2021/01/10 00:58:46;;;;;;;20.27;18.58;;;;;;;6.48;62.32;102512.28;5083780;28;20039;-86
2021/01/10 01:01:12;;;;;;;22.50;20.80;;;;;;;6.47;61.88;102497.06;5083124;28;20063;-86
2021/01/10 01:03:37;;;;;;;12.75;11.63;;;;;;;6.67;61.57;102514.31;5083409;28;20036;-86
2021/01/10 01:06:12;;;;;;;21.73;19.98;;;;;;;6.66;61.47;102494.53;5087755;28;20028;-84
2021/01/10 01:08:38;;;;;;;20.90;18.90;;;;;;;6.74;61.49;102491.19;5085216;28;20026;-84
2021/01/10 01:11:04;;;;;;;19.35;17.70;;;;;;;6.82;61.18;102489.50;5087616;28;20028;-85
2021/01/10 01:13:29;;;;;;;13.80;12.43;;;;;;;6.91;61.08;102504.09;5069259;28;20044;-84
2021/01/10 01:15:54;;;;;;;19.98;18.00;;;;;;;7.09;60.75;102517.03;5069737;28;20044;-84
2021/01/10 01:18:23;;;;;;;19.08;17.35;;;;;;;7.11;60.40;102515.06;5087962;28;20085;-85
2021/01/10 01:20:50;;;;;;;28.63;26.60;;;;;;;7.06;60.29;102495.66;5083722;28;20551;-84
2021/01/10 01:23:15;;;;;;;15.18;12.00;;;;;;;7.09;60.17;102498.97;5085534;28;20547;-86
2021/01/10 01:25:41;;;;;;;20.27;18.45;;;;;;;7.22;60.37;102509.59;5084635;28;20028;-85
2021/01/10 01:28:06;;;;;;;31.92;29.58;;;;;;;7.31;60.12;102518.75;5068291;28;20024;-85
2021/01/10 01:30:32;;;;;;;23.65;21.80;;;;;;;7.25;60.29;102501.19;5067820;28;20023;-85
2021/01/10 01:32:57;;;;;;;20.35;18.55;;;;;;;7.37;59.72;102504.69;5052893;28;20563;-85
2021/01/10 01:35:23;;;;;;;24.38;22.38;;;;;;;7.31;59.42;102486.28;5084392;28;20124;-85
2021/01/10 01:37:54;;;;;;;28.65;26.33;;;;;;;7.39;58.84;102501.84;5054665;28;20035;-85
2021/01/10 01:40:19;;;;;;;26.35;24.33;;;;;;;7.27;58.94;102514.59;5085071;28;20050;-84
2021/01/10 01:42:46;;;;;;;16.08;14.70;;;;;;;7.23;58.98;102503.19;5068554;28;20494;-85
2021/01/10 01:45:11;;;;;;;17.92;16.20;;;;;;;7.28;58.87;102516.31;5086671;28;20565;-85
2021/01/10 01:47:38;;;;;;;17.20;15.65;;;;;;;7.23;58.73;102505.03;5085132;28;20101;-85
2021/01/10 01:50:12;;;;;;;20.30;18.70;;;;;;;7.22;58.89;102515.00;5082873;28;20028;-85
2021/01/10 01:52:39;;;;;;;18.73;17.33;;;;;;;7.12;58.68;102492.41;5084607;28;20667;-86
2021/01/10 01:55:08;;;;;;;21.13;19.33;;;;;;;7.08;58.66;102491.84;5069370;28;20671;-85
2021/01/10 01:57:34;;;;;;;14.82;13.60;;;;;;;7.09;58.72;102490.88;5066951;28;20046;-86
2021/01/10 01:59:59;;;;;;;17.67;16.27;;;;;;;7.09;58.58;102487.28;5087221;28;20028;-86
2021/01/10 02:02:25;;;;;;;12.23;9.07;;;;;;;7.11;58.68;102494.28;5085025;28;20040;-85
2021/01/10 02:05:01;;;;;;;15.27;13.85;;;;;;;7.00;58.73;102475.44;5087156;28;20027;-86
2021/01/10 02:07:43;;;;;;;13.18;11.88;;;;;;;7.04;58.48;102487.66;5083353;28;20039;-85
2021/01/10 02:10:14;;;;;;;13.70;12.48;;;;;;;6.99;58.47;102493.47;5083247;28;20020;-85
2021/01/10 02:12:48;;;;;;;13.70;12.57;;;;;;;7.03;58.43;102490.50;5086013;28;20032;-85
2021/01/10 02:15:16;;;;;;;13.27;12.38;;;;;;;7.04;58.28;102493.09;5085093;28;20493;-84
2021/01/10 02:17:46;;;;;;;15.82;14.50;;;;;;;6.96;58.20;102488.34;5084508;28;20125;-85
2021/01/10 02:20:20;;;;;;;17.13;15.48;;;;;;;7.01;57.81;102485.22;5086002;28;20390;-85
2021/01/10 02:23:01;;;;;;;13.02;11.73;;;;;;;7.06;57.65;102484.84;5083301;28;20031;-83
2021/01/10 02:25:27;;;;;;;14.60;13.30;;;;;;;7.03;57.94;102483.28;5086262;28;20587;-84
2021/01/10 02:27:53;;;;;;;16.48;15.18;;;;;;;7.09;57.91;102477.34;5067958;28;20093;-84
2021/01/10 02:30:20;;;;;;;16.00;14.93;;;;;;;7.19;57.83;102493.63;5083675;28;20478;-84
2021/01/10 02:32:50;;;;;;;22.98;21.38;;;;;;;7.21;57.78;102479.94;5085198;28;20043;-84
2021/01/10 02:35:16;;;;;;;15.20;13.95;;;;;;;7.25;57.60;102478.72;5084257;28;20061;-84
2021/01/10 02:37:58;;;;;;;12.88;10.55;;;;;;;7.23;57.59;102484.25;5084677;28;20071;-84
2021/01/10 02:40:47;;;;;;;12.18;11.18;;;;;;;7.39;57.38;102491.03;5083836;28;20086;-84
2021/01/10 02:43:20;;;;;;;12.90;11.80;;;;;;;7.33;57.59;102482.44;5086122;28;20747;-84
2021/01/10 02:45:49;;;;;;;14.13;12.93;;;;;;;7.38;57.42;102476.63;5084461;28;20136;-84
2021/01/10 02:48:14;;;;;;;12.45;9.18;;;;;;;7.34;57.36;102473.34;5084325;28;20161;-85
2021/01/10 02:50:40;;;;;;;8.25;6.60;;;;;;;7.37;57.19;102469.50;5085007;28;20491;-85
2021/01/10 02:53:05;;;;;;;10.95;9.95;;;;;;;7.49;56.90;102467.56;5085402;28;20035;-85
2021/01/10 02:55:31;;;;;;;4.50;4.18;;;;;;;7.46;56.78;102468.69;5067694;28;20389;-85
2021/01/10 02:58:06;;;;;;;12.45;11.40;;;;;;;7.47;56.60;102469.53;5067761;28;20505;-85
2021/01/10 03:00:31;;;;;;;11.68;10.77;;;;;;;7.46;56.56;102465.13;5083476;28;20032;-84
2021/01/10 03:02:58;;;;;;;10.55;8.30;;;;;;;7.46;56.83;102467.81;5084013;28;20051;-85
2021/01/10 03:05:27;;;;;;;6.20;4.78;;;;;;;7.45;57.07;102469.69;5082276;28;20068;-85
2021/01/10 03:07:56;;;;;;;8.93;6.47;;;;;;;7.42;56.90;102469.94;5083450;28;20035;-85
2021/01/10 03:10:21;;;;;;;7.63;6.65;;;;;;;7.34;56.85;102454.38;5086149;28;20060;-85
2021/01/10 03:12:47;;;;;;;11.40;7.63;;;;;;;7.41;56.85;102465.53;5084952;28;20032;-85
2021/01/10 03:15:13;;;;;;;10.07;8.73;;;;;;;7.37;56.93;102460.50;5086524;28;20063;-85
2021/01/10 03:17:43;;;;;;;9.82;8.77;;;;;;;7.40;56.83;102461.13;5084474;28;20059;-85
2021/01/10 03:20:17;;;;;;;5.63;4.18;;;;;;;7.45;56.48;102466.97;5085619;28;20049;-85
2021/01/10 03:22:46;;;;;;;8.38;6.07;;;;;;;7.46;56.71;102462.41;5084196;28;20029;-85
2021/01/10 03:25:14;;;;;;;6.72;5.80;;;;;;;7.44;56.55;102459.84;5064114;28;20398;-86
2021/01/10 03:27:40;;;;;;;11.48;8.82;;;;;;;7.42;56.88;102458.28;5081377;28;20084;-86
2021/01/10 03:30:08;;;;;;;8.20;7.57;;;;;;;7.28;56.85;102432.44;5083788;28;20036;-85
2021/01/10 03:32:34;;;;;;;10.95;6.03;;;;;;;7.37;57.12;102447.88;5082381;28;20107;-85
2021/01/10 03:34:59;;;;;;;7.82;6.95;;;;;;;7.42;57.22;102450.16;5084424;28;20119;-85
2021/01/10 03:37:24;;;;;;;9.35;4.32;;;;;;;7.42;57.03;102451.00;5085039;28;20039;-86
2021/01/10 03:39:50;;;;;;;13.93;10.63;;;;;;;7.43;56.72;102436.50;5085046;28;20031;-85
2021/01/10 03:42:15;;;;;;;13.93;12.85;;;;;;;7.46;56.59;102440.75;5082810;28;20427;-86
2021/01/10 03:44:41;;;;;;;18.40;16.38;;;;;;;7.44;56.36;102446.31;5081886;28;20387;-86
2021/01/10 03:47:06;;;;;;;9.40;8.50;;;;;;;7.52;56.62;102467.28;5065019;28;20028;-85
2021/01/10 03:49:32;;;;;;;11.40;10.32;;;;;;;7.47;56.47;102446.03;5083539;28;20073;-85
2021/01/10 03:51:57;;;;;;;13.25;12.07;;;;;;;7.42;56.43;102440.19;5083239;28;20040;-86
2021/01/10 03:54:23;;;;;;;14.98;13.88;;;;;;;7.48;56.31;102447.75;5082498;28;20040;-86
2021/01/10 03:56:48;;;;;;;10.48;8.60;;;;;;;7.50;56.32;102443.06;5066567;28;20030;-85
2021/01/10 03:59:14;;;;;;;13.52;12.35;;;;;;;7.51;56.31;102457.47;5084457;28;20028;-86
2021/01/10 04:01:39;;;;;;;13.23;10.77;;;;;;;7.49;56.50;102448.59;5069046;28;20106;-86
2021/01/10 04:04:04;;;;;;;14.60;13.60;;;;;;;7.38;56.58;102427.91;5070634;28;20024;-87
2021/01/10 04:06:30;;;;;;;18.80;17.58;;;;;;;7.45;56.37;102434.50;5069650;28;20438;-86
2021/01/10 04:08:55;;;;;;;12.85;11.93;;;;;;;7.51;57.10;102450.19;5054215;28;20032;-87
2021/01/10 04:11:22;;;;;;;11.95;10.85;;;;;;;7.49;57.34;102445.91;5088997;28;20039;-86
2021/01/10 04:13:48;;;;;;;15.60;14.43;;;;;;;7.61;56.80;102433.13;5087619;28;20032;-86
2021/01/10 04:16:14;;;;;;;13.57;12.45;;;;;;;7.71;56.52;102444.84;5087349;28;20111;-87
2021/01/10 04:18:40;;;;;;;11.75;10.93;;;;;;;7.71;56.50;102439.44;5087565;28;20092;-86
2021/01/10 04:21:05;;;;;;;15.18;13.75;;;;;;;7.63;56.61;102428.41;5086916;28;20440;-85
2021/01/10 04:23:31;;;;;;;13.55;12.30;;;;;;;7.69;56.68;102436.00;5069993;28;20040;-86
2021/01/10 04:25:56;;;;;;;9.05;7.07;;;;;;;7.66;56.54;102431.72;5086433;28;20071;-87
2021/01/10 04:28:22;;;;;;;13.60;12.18;;;;;;;7.72;56.91;102449.25;5086968;28;20028;-87
2021/01/10 04:30:47;;;;;;;11.48;9.52;;;;;;;7.69;56.67;102447.69;5087448;28;20135;-85
2021/01/10 04:33:13;;;;;;;11.02;10.02;;;;;;;7.66;56.73;102431.72;5087298;28;20036;-86
2021/01/10 04:35:38;;;;;;;7.22;6.63;;;;;;;7.74;56.85;102433.75;5069862;28;20032;-85
2021/01/10 04:38:04;;;;;;;13.73;12.50;;;;;;;7.73;57.13;102434.72;5086924;28;20734;-85
2021/01/10 04:40:30;;;;;;;13.27;11.00;;;;;;;7.78;56.73;102434.31;5088027;28;20032;-87
2021/01/10 04:42:55;;;;;;;12.80;11.75;;;;;;;7.75;56.91;102427.31;5069441;28;20494;-87
2021/01/10 04:45:22;;;;;;;9.88;8.93;;;;;;;7.72;56.82;102433.00;5086049;28;20185;-86
2021/01/10 04:47:47;;;;;;;6.95;6.30;;;;;;;7.74;56.95;102433.75;5084222;28;20134;-86
2021/01/10 04:50:13;;;;;;;11.82;10.63;;;;;;;7.75;57.22;102429.19;5088694;28;20032;-88
2021/01/10 04:52:41;;;;;;;13.88;12.70;;;;;;;7.68;57.11;102418.06;5070490;28;20028;-86
2021/01/10 04:55:07;;;;;;;9.75;8.45;;;;;;;7.68;57.16;102408.06;5087802;28;20056;-85
2021/01/10 04:57:33;;;;;;;9.55;9.02;;;;;;;7.69;57.27;102412.50;5085775;28;20161;-87
2021/01/10 04:59:59;;;;;;;8.10;7.43;;;;;;;7.72;57.41;102405.94;5051970;28;20066;-87
2021/01/10 05:02:26;;;;;;;12.18;10.43;;;;;;;7.81;57.40;102410.50;5083782;28;20581;-88
2021/01/10 05:04:53;;;;;;;13.95;12.88;;;;;;;7.80;57.08;102397.09;5085942;28;20493;-87
2021/01/10 05:07:19;;;;;;;9.93;8.95;;;;;;;7.86;57.04;102400.13;5085794;28;20058;-86
2021/01/10 05:09:46;;;;;;;8.75;7.90;;;;;;;7.89;56.96;102402.56;5084510;28;20115;-88
2021/01/10 05:12:11;;;;;;;10.35;9.32;;;;;;;7.82;57.04;102393.28;5088317;28;20039;-89
2021/01/10 05:14:37;;;;;;;7.85;6.85;;;;;;;7.88;56.99;102395.44;5086761;28;20032;-88
2021/01/10 05:17:02;;;;;;;13.48;8.00;;;;;;;7.93;56.85;102394.16;5069092;28;20124;-89
2021/01/10 05:19:31;;;;;;;12.52;11.38;;;;;;;7.94;56.75;102390.44;5054058;28;20024;-87
2021/01/10 05:22:05;;;;;;;11.15;10.15;;;;;;;7.96;56.72;102399.28;5085457;28;20146;-89
2021/01/10 05:24:30;;;;;;;10.40;9.55;;;;;;;7.98;56.79;102391.88;5086809;28;20046;-88
2021/01/10 05:26:56;;;;;;;11.07;10.18;;;;;;;7.91;56.60;102385.28;5088281;28;20398;-90
2021/01/10 05:29:21;;;;;;;13.07;11.82;;;;;;;7.87;56.45;102380.16;5088905;28;20036;-89
2021/01/10 05:31:47;;;;;;;10.40;9.27;;;;;;;7.79;56.48;102385.44;5084870;28;20520;-90
2021/01/10 05:34:15;;;;;;;13.82;12.93;;;;;;;7.79;56.50;102382.72;5086069;28;20028;-88
2021/01/10 05:36:41;;;;;;;13.50;11.77;;;;;;;7.84;56.94;102391.28;5083459;28;20024;-87
2021/01/10 05:39:16;;;;;;;14.85;12.00;;;;;;;7.88;56.87;102387.28;5086954;28;20109;-87
2021/01/10 05:42:01;;;;;;;12.95;7.25;;;;;;;7.91;57.39;102386.16;5085520;28;20147;-87
2021/01/10 05:44:28;;;;;;;14.98;12.38;;;;;;;7.89;58.31;102378.19;5088244;28;20024;-88
2021/01/10 05:47:10;;;;;;;16.38;12.63;;;;;;;8.02;58.38;102388.75;5087362;28;20054;-87
2021/01/10 05:49:48;;;;;;;17.95;15.35;;;;;;;8.09;58.39;102383.59;5087820;28;20039;-89
2021/01/10 05:52:14;;;;;;;15.75;14.25;;;;;;;7.93;58.61;102377.91;5085013;28;20059;-87
2021/01/10 05:54:45;;;;;;;13.68;12.10;;;;;;;8.01;58.28;102383.47;5087273;28;20035;-88
2021/01/10 05:57:13;;;;;;;17.52;14.98;;;;;;;7.94;57.98;102383.19;5085800;28;20471;-88
2021/01/10 05:59:48;;;;;;;15.80;12.52;;;;;;;7.82;58.33;102381.59;5085675;28;20028;-88
2021/01/10 06:02:26;;;;;;;24.25;22.17;;;;;;;7.77;58.36;102379.31;5086033;28;20036;-88
2021/01/10 06:04:52;;;;;;;14.15;10.38;;;;;;;7.71;58.23;102379.88;5086047;28;20024;-87
2021/01/10 06:07:30;;;;;;;13.32;9.55;;;;;;;7.73;58.24;102394.13;5086873;28;20615;-88
2021/01/10 06:09:56;;;;;;;12.82;11.35;;;;;;;7.54;58.42;102375.97;5103535;28;20063;-89
2021/01/10 06:12:25;;;;;;;13.50;9.70;;;;;;;7.48;58.58;102381.94;5088134;28;20076;-89
2021/01/10 06:14:51;;;;;;;16.05;12.70;;;;;;;7.47;58.79;102396.47;5085735;28;20126;-88
2021/01/10 06:17:17;;;;;;;18.25;16.55;;;;;;;7.42;58.89;102396.03;5082048;28;20028;-87
2021/01/10 06:19:45;;;;;;;15.10;13.82;;;;;;;7.39;58.96;102397.16;5083748;28;20093;-88
2021/01/10 06:22:17;;;;;;;18.40;16.77;;;;;;;7.29;59.04;102401.66;5084140;28;20040;-86
2021/01/10 06:24:47;;;;;;;19.25;17.55;;;;;;;7.30;59.18;102395.25;5084052;28;20042;-89
2021/01/10 06:27:22;;;;;;;16.92;15.43;;;;;;;7.09;59.50;102385.34;5086354;28;20135;-85
2021/01/10 06:29:53;;;;;;;14.68;13.13;;;;;;;7.11;59.44;102388.78;5085669;28;20071;-87
2021/01/10 06:32:22;;;;;;;14.25;12.75;;;;;;;7.22;59.06;102405.91;5085052;28;20055;-87
2021/01/10 06:34:49;;;;;;;20.02;18.23;;;;;;;7.22;58.93;102412.19;5084531;28;20093;-87
2021/01/10 06:37:15;;;;;;;18.02;15.75;;;;;;;7.09;58.97;102388.06;5086234;28;20036;-85
2021/01/10 06:39:48;;;;;;;18.10;16.63;;;;;;;7.14;59.28;102399.31;5082822;28;20035;-85
2021/01/10 06:42:15;;;;;;;12.73;11.43;;;;;;;7.12;58.95;102395.03;5068495;28;20047;-88
2021/01/10 06:44:46;;;;;;;14.35;12.93;;;;;;;7.13;58.98;102402.16;5085490;28;20032;-87
2021/01/10 06:47:17;;;;;;;17.15;15.75;;;;;;;7.04;59.34;102403.81;5085780;28;20085;-87
2021/01/10 06:49:42;;;;;;;18.50;15.93;;;;;;;7.02;59.18;102405.81;5079722;28;20024;-86
2021/01/10 06:52:09;;;;;;;21.95;19.75;;;;;;;6.97;59.59;102403.50;5085205;28;21052;-86
2021/01/10 06:54:40;;;;;;;17.60;15.98;;;;;;;7.02;59.47;102408.50;5084916;28;20036;-85
2021/01/10 06:57:06;;;;;;;14.98;13.48;;;;;;;6.96;59.43;102404.50;5084307;28;20105;-86
2021/01/10 06:59:58;;;;;;;13.80;12.45;;;;;;;6.92;59.08;102407.59;5086467;28;20122;-86
2021/01/10 07:02:25;;;;;;;12.60;10.38;;;;;;;6.76;59.46;102398.09;5082625;28;20044;-87
2021/01/10 07:04:54;;;;;;;16.60;11.98;;;;;;;6.85;59.89;102409.13;5085001;28;20040;-87
2021/01/10 07:07:40;;;;;;;14.07;12.90;;;;;;;6.87;59.31;102409.84;5085290;28;20446;-86
2021/01/10 07:10:08;;;;;;;12.70;10.15;;;;;;;6.86;59.53;102411.72;5085494;28;20059;-85
2021/01/10 07:12:33;;;;;;;24.05;21.80;;;;;;;6.79;59.47;102405.94;5085385;28;20479;-87
2021/01/10 07:15:31;;;;;;;17.15;15.60;;;;;;;6.78;59.75;102415.06;5085203;28;20028;-87
2021/01/10 07:18:02;;;;;;;25.20;23.33;;;;;;;6.78;59.86;102415.06;5013408;28;20048;-86
2021/01/10 07:20:34;;;;;;;24.73;22.60;;;;;;;6.81;59.71;102417.50;5085088;28;20043;-87
2021/01/10 07:23:25;;;;;;;19.95;18.27;;;;;;;6.82;59.80;102416.50;5085309;28;20051;-86
2021/01/10 07:25:51;;;;;;;27.52;24.75;;;;;;;6.80;59.61;102409.53;5086183;28;20024;-87
2021/01/10 07:28:40;;;;;;;16.00;14.57;;;;;;;6.82;59.74;102413.81;5082043;28;20020;-86
2021/01/10 07:31:11;;;;;;;21.45;19.65;;;;;;;6.79;59.96;102408.66;5081135;28;20131;-86
2021/01/10 07:33:36;;;;;;;15.70;14.20;;;;;;;6.88;60.01;102409.72;5084552;28;20139;-88
2021/01/10 07:36:02;;;;;;;20.70;16.52;;;;;;;6.91;60.12;102416.72;5066657;28;20174;-87
2021/01/10 07:38:30;;;;;;;15.85;14.35;;;;;;;6.97;59.88;102418.88;5086400;28;20035;-87
2021/01/10 07:41:22;;;;;;;20.35;18.65;;;;;;;7.04;59.97;102420.06;5090946;28;20041;-88
2021/01/10 07:43:53;;;;;;;15.63;13.82;;;;;;;7.07;59.66;102419.78;5084251;28;20416;-87
2021/01/10 07:46:54;;;;;;;17.55;15.77;;;;;;;7.14;59.64;102425.53;5086797;28;20044;-87
2021/01/10 07:49:22;;;;;;;19.40;17.65;;;;;;;7.11;59.67;102414.97;5087403;28;20032;-88
2021/01/10 07:51:48;;;;;;;20.50;18.60;;;;;;;7.14;59.78;102420.97;5089527;28;20127;-87
2021/01/10 07:54:14;;;;;;;14.80;12.50;;;;;;;7.11;60.05;102405.00;5088542;28;20107;-87
2021/01/10 07:56:39;;;;;;;21.48;19.02;;;;;;;7.22;59.89;102414.88;5088071;28;20032;-88
2021/01/10 07:59:15;;;;;;;21.20;19.15;;;;;;;7.21;59.72;102415.88;5086727;28;20631;-88
2021/01/10 08:01:47;;;;;;;19.73;17.98;;;;;;;7.21;60.36;102415.88;5087772;28;20032;-87
2021/01/10 08:04:32;;;;;;;22.63;20.70;;;;;;;7.29;59.85;102399.81;5085645;28;20071;-88
2021/01/10 08:06:59;;;;;;;17.85;16.13;;;;;;;7.47;59.58;102410.84;5087288;28;20038;-88
2021/01/10 08:09:32;;;;;;;20.73;18.88;;;;;;;7.56;59.34;102406.47;5089973;28;20995;-89
2021/01/10 08:12:01;;;;;;;17.08;15.35;;;;;;;7.67;59.19;102419.03;5089344;28;20054;-87
2021/01/10 08:14:26;;;;;;;19.30;17.40;;;;;;;7.62;59.00;102405.91;5088155;28;20032;-87
2021/01/10 08:16:52;;;;;;;20.35;18.25;;;;;;;7.62;59.09;102397.78;5088676;28;20043;-86
2021/01/10 08:19:17;;;;;;;20.08;18.02;;;;;;;7.78;58.77;102413.50;5072153;28;20039;-88
2021/01/10 08:21:44;;;;;;;15.00;13.32;;;;;;;7.88;58.57;102417.09;5070566;28;20020;-89
2021/01/10 08:24:10;;;;;;;17.83;15.13;;;;;;;7.91;58.25;102420.50;5086176;28;20035;-89
2021/01/10 08:26:40;;;;;;;24.98;22.77;;;;;;;7.79;58.24;102419.78;5086679;28;20043;-86
2021/01/10 08:29:06;;;;;;;18.43;16.83;;;;;;;7.90;58.12;102422.38;5085818;28;20119;-87
2021/01/10 08:31:33;;;;;;;16.55;14.82;;;;;;;7.86;58.02;102431.75;5086445;28;20559;-88
2021/01/10 08:34:07;;;;;;;25.05;23.05;;;;;;;7.93;57.60;102423.97;5087827;28;20441;-88
2021/01/10 08:36:33;;;;;;;19.98;17.60;;;;;;;8.37;57.49;102429.81;5089610;28;20028;-88
2021/01/10 08:39:05;;;;;;;26.58;24.02;;;;;;;9.04;55.35;102433.50;5087423;28;20107;-88
2021/01/10 08:41:32;;;;;;;19.42;17.45;;;;;;;9.15;54.93;102435.19;5089373;28;20063;-87
2021/01/10 08:43:59;;;;;;;16.98;15.48;;;;;;;9.23;55.01;102439.88;5088297;28;20032;-89
2021/01/10 08:46:26;;;;;;;19.90;17.88;;;;;;;9.75;54.65;102425.78;5087269;28;20043;-91
2021/01/10 08:48:51;;;;;;;20.02;13.25;;;;;;;10.71;52.76;102422.50;5086178;28;20035;-90
2021/01/10 08:51:31;;;;;;;19.85;17.88;;;;;;;10.76;50.13;102422.88;5087712;28;20020;-93
2021/01/10 08:53:57;;;;;;;21.63;19.55;;;;;;;10.62;50.27;102427.00;5091721;28;20039;-89
2021/01/10 08:56:23;;;;;;;14.82;12.30;;;;;;;10.45;50.98;102419.72;5073154;28;20027;-90
2021/01/10 08:58:54;;;;;;;16.65;15.07;;;;;;;10.25;51.55;102414.41;5090608;28;20414;-90
2021/01/10 09:01:20;;;;;;;15.07;12.75;;;;;;;10.62;51.56;102432.44;5088695;28;20770;-91
2021/01/10 09:04:00;;;;;;;13.23;11.77;;;;;;;10.70;50.89;102424.34;5088886;28;20039;-92
2021/01/10 09:06:35;;;;;;;14.80;13.48;;;;;;;10.36;51.09;102424.22;5072185;28;20032;-88
2021/01/10 09:09:05;;;;;;;13.90;10.48;;;;;;;9.84;52.42;102424.88;5084263;28;20036;-92
2021/01/10 09:11:36;;;;;;;16.05;14.38;;;;;;;9.91;52.78;102415.09;5087248;28;20470;-92
2021/01/10 09:14:03;;;;;;;20.00;18.20;;;;;;;9.90;52.98;102423.41;5087234;28;20051;-91
2021/01/10 09:16:35;;;;;;;19.33;17.50;;;;;;;9.75;53.25;102410.34;5077241;28;20217;-89
2021/01/10 09:19:06;;;;;;;17.30;15.80;;;;;;;9.67;54.10;102426.53;5088707;28;20032;-92
2021/01/10 09:21:32;;;;;;;20.45;18.35;;;;;;;9.76;54.15;102432.91;5086874;28;20110;-90
2021/01/10 09:23:58;;;;;;;17.58;15.82;;;;;;;9.75;53.46;102421.19;5055647;28;20159;-91
2021/01/10 09:26:28;;;;;;;15.65;13.15;;;;;;;9.83;53.51;102423.16;5090026;28;20664;-91
2021/01/10 09:28:54;;;;;;;22.05;20.33;;;;;;;9.86;53.24;102411.97;5091132;28;20032;-93
2021/01/10 09:31:19;;;;;;;14.45;13.15;;;;;;;9.90;53.45;102424.28;5056981;28;20093;-93
2021/01/10 09:33:53;;;;;;;17.42;13.38;;;;;;;9.90;53.77;102428.81;5075295;28;20035;-93
2021/01/10 09:36:18;;;;;;;18.10;16.40;;;;;;;9.98;53.97;102435.22;5089074;28;20408;-94
2021/01/10 09:38:57;;;;;;;21.27;17.70;;;;;;;9.98;53.94;102427.06;5073674;28;20032;-92
2021/01/10 09:41:26;;;;;;;23.52;21.25;;;;;;;9.88;53.46;102398.25;5084067;28;20403;-92
2021/01/10 09:43:54;;;;;;;17.02;13.98;;;;;;;9.99;53.14;102409.75;5089359;28;20073;-91
2021/01/10 09:46:30;;;;;;;19.33;17.35;;;;;;;9.84;52.99;102422.16;5090540;28;21105;-88
2021/01/10 09:48:58;;;;;;;16.73;14.90;;;;;;;9.83;53.25;102415.84;5090661;28;20031;-91
2021/01/10 09:51:26;;;;;;;13.38;11.98;;;;;;;9.79;53.99;102424.47;5090881;28;20036;-91
2021/01/10 09:53:52;;;;;;;15.25;12.55;;;;;;;9.72;53.95;102426.09;5087636;28;20125;-90
2021/01/10 09:56:39;;;;;;;16.58;15.00;;;;;;;9.68;54.11;102426.41;5058569;28;20059;-93
2021/01/10 09:59:43;;;;;;;16.30;14.32;;;;;;;9.50;54.88;102428.19;5087591;28;20530;-93
2021/01/10 10:02:23;;;;;;;13.20;11.82;;;;;;;9.50;55.13;102417.34;5081766;28;20078;-91
2021/01/10 10:04:50;;;;;;;15.30;13.40;;;;;;;9.54;55.25;102418.72;5067648;28;20035;-90
2021/01/10 10:07:33;;;;;;;19.10;17.20;;;;;;;9.53;55.42;102419.75;5087442;28;20488;-91
2021/01/10 10:09:59;;;;;;;17.92;14.55;;;;;;;9.57;55.64;102423.00;5069493;28;20032;-89
2021/01/10 10:12:25;;;;;;;16.02;13.05;;;;;;;9.64;55.69;102424.97;5070622;28;20028;-88
2021/01/10 10:15:06;;;;;;;26.85;24.17;;;;;;;9.71;55.72;102418.94;5070686;28;20028;-91
2021/01/10 10:17:34;;;;;;;16.38;12.80;;;;;;;9.59;55.94;102415.56;5088998;28;20043;-90
2021/01/10 10:20:01;;;;;;;17.02;15.32;;;;;;;9.55;55.98;102414.19;5086556;28;20036;-91
2021/01/10 10:22:33;;;;;;;21.70;19.42;;;;;;;9.62;55.72;102410.69;5086060;28;20544;-90
2021/01/10 10:25:00;;;;;;;22.58;19.50;;;;;;;9.69;56.14;102421.81;5086344;28;20101;-88
2021/01/10 10:27:27;;;;;;;17.88;14.98;;;;;;;9.59;56.44;102413.72;5069334;28;20032;-89
2021/01/10 10:29:53;;;;;;;27.55;22.70;;;;;;;9.56;56.34;102407.72;5086912;28;20036;-85
2021/01/10 10:32:18;;;;;;;20.92;17.10;;;;;;;9.62;56.40;102415.25;5068111;28;20521;-87
2021/01/10 10:34:44;;;;;;;19.30;14.65;;;;;;;9.75;56.40;102404.91;5069212;28;20758;-90
2021/01/10 10:37:09;;;;;;;21.83;17.92;;;;;;;9.69;56.34;102405.50;5087729;28;20078;-86
2021/01/10 10:39:37;;;;;;;32.95;19.45;;;;;;;9.75;56.37;102402.19;5087481;28;20036;-87
2021/01/10 10:42:04;;;;;;;29.80;26.60;;;;;;;9.53;56.55;102387.16;5086135;28;20038;-88
2021/01/10 10:44:30;;;;;;;20.02;17.77;;;;;;;9.46;56.67;102421.34;5086319;28;20032;-86
2021/01/10 10:46:56;;;;;;;19.02;15.98;;;;;;;9.57;56.37;102412.16;5086868;28;20390;-88
2021/01/10 10:49:22;;;;;;;21.25;17.80;;;;;;;9.75;56.25;102412.22;5069936;28;20024;-87
2021/01/10 10:51:47;;;;;;;18.90;13.05;;;;;;;9.83;56.08;102413.13;5068994;28;20040;-87
2021/01/10 10:54:14;;;;;;;17.95;16.05;;;;;;;9.81;56.26;102404.28;5067146;28;20028;-90
2021/01/10 10:56:40;;;;;;;24.90;20.55;;;;;;;10.02;55.78;102400.44;5052842;28;20028;-87
2021/01/10 10:59:06;;;;;;;22.80;20.38;;;;;;;9.87;55.58;102389.25;5084167;28;20375;-87
2021/01/10 11:01:48;;;;;;;28.27;25.73;;;;;;;9.89;55.24;102405.41;5081858;28;20039;-87
2021/01/10 11:04:14;;;;;;;25.40;21.40;;;;;;;10.12;55.14;102409.38;5080563;28;20024;-90
2021/01/10 11:06:40;;;;;;;27.05;19.98;;;;;;;10.01;55.67;102409.59;5065124;28;20040;-90
2021/01/10 11:09:09;;;;;;;23.50;20.33;;;;;;;9.89;55.96;102394.53;5085500;28;20036;-92
2021/01/10 11:11:36;;;;;;;27.15;24.55;;;;;;;9.84;56.17;102400.44;5090540;28;20032;-90
2021/01/10 11:14:03;;;;;;;19.13;17.17;;;;;;;9.74;56.52;102392.31;5087957;28;20028;-87
2021/01/10 11:16:33;;;;;;;19.23;16.20;;;;;;;9.78;56.59;102410.03;5085805;28;20036;-90
2021/01/10 11:19:00;;;;;;;18.10;13.50;;;;;;;9.78;56.88;102401.03;5085960;28;20051;-87
2021/01/10 11:21:30;;;;;;;20.33;18.15;;;;;;;9.81;56.99;102408.88;5088167;28;20490;-91
2021/01/10 11:23:55;;;;;;;19.77;15.82;;;;;;;9.56;57.54;102386.00;5069371;28;20051;-90
2021/01/10 11:26:21;;;;;;;19.67;15.00;;;;;;;9.59;57.48;102394.72;5089853;28;20024;-89
2021/01/10 11:28:47;;;;;;;21.27;16.42;;;;;;;9.65;57.58;102395.94;5090133;28;20440;-89